Time;durP1;ratioP1;P1;durP2;ratioP2;P2;SDS_P1;SDS_P2;PMS_P1;PMS_P2;Temp;Humidity;BMP_temperature;BMP_pressure;BME280_temperature;BME280_humidity;BME280_pressure;Samples;Min_cycle;Max_cycle;Signal;HPM_P1;HPM_P2
2023/01/16 00:00:09;;;;;;;18.50;11.00;;;;;;;-2.13;97.76;99667.95;105508;1264;62388;-73
2023/01/16 00:02:36;;;;;;;23.50;12.40;;;;;;;-2.11;97.64;99646.89;107107;1264;73118;-73
2023/01/16 00:05:03;;;;;;;18.10;10.90;;;;;;;-2.17;97.91;99644.80;106496;1263;71004;-74
2023/01/16 00:07:30;;;;;;;19.20;10.10;;;;;;;-2.14;98.08;99642.89;105881;1269;73316;-73
2023/01/16 00:09:57;;;;;;;19.20;10.60;;;;;;;-2.07;97.86;99642.61;104824;1264;166906;-74
2023/01/16 00:12:24;;;;;;;19.10;10.50;;;;;;;-2.09;97.93;99635.09;105307;1259;61373;-73
2023/01/16 00:14:51;;;;;;;21.60;11.00;;;;;;;-2.11;98.14;99631.27;105060;1263;74504;-72
2023/01/16 00:17:17;;;;;;;17.30;10.50;;;;;;;-2.05;98.05;99652.60;105113;1265;69196;-72
2023/01/16 00:19:44;;;;;;;19.70;10.40;;;;;;;-2.02;97.62;99633.83;105223;1259;75182;-74
2023/01/16 00:22:11;;;;;;;18.80;9.80;;;;;;;-2.06;97.84;99640.84;105138;1263;60377;-71
2023/01/16 00:24:38;;;;;;;22.40;10.80;;;;;;;-2.12;98.14;99638.92;105037;1259;60434;-71
2023/01/16 00:27:05;;;;;;;16.50;10.00;;;;;;;-2.06;98.14;99625.02;105000;1259;75098;-71
2023/01/16 00:29:32;;;;;;;21.90;11.60;;;;;;;-2.01;97.84;99624.00;105110;1267;71184;-70
2023/01/16 00:31:59;;;;;;;18.30;11.50;;;;;;;-2.02;98.04;99620.83;105048;1259;72763;-72
2023/01/16 00:34:26;;;;;;;18.50;10.50;;;;;;;-2.06;98.49;99622.44;105143;1260;60784;-71
2023/01/16 00:36:52;;;;;;;20.20;11.30;;;;;;;-2.03;98.41;99629.57;105153;1260;60235;-71
2023/01/16 00:39:19;;;;;;;15.00;8.90;;;;;;;-1.96;98.11;99631.25;105165;1259;74955;-70
2023/01/16 00:41:46;;;;;;;16.50;10.40;;;;;;;-1.97;98.14;99613.56;105215;1256;72504;-70
2023/01/16 00:44:13;;;;;;;20.60;10.40;;;;;;;-2.02;98.32;99609.34;105265;1259;72957;-71
2023/01/16 00:46:40;;;;;;;18.90;10.50;;;;;;;-2.00;98.50;99601.56;105374;1256;63347;-70
2023/01/16 00:49:07;;;;;;;17.00;10.10;;;;;;;-1.90;98.14;99595.81;105237;1261;62627;-71
2023/01/16 00:51:34;;;;;;;16.20;9.50;;;;;;;-1.90;98.29;99597.71;105081;1264;74222;-71
2023/01/16 00:54:01;;;;;;;17.10;10.20;;;;;;;-1.94;98.42;99591.19;105326;1256;69684;-71
2023/01/16 00:56:28;;;;;;;16.50;9.30;;;;;;;-1.96;98.32;99571.69;105274;1258;74995;-71
2023/01/16 00:58:54;;;;;;;14.10;8.20;;;;;;;-1.86;97.98;99568.64;105338;1260;60957;-71
2023/01/16 01:01:21;;;;;;;13.10;8.20;;;;;;;-1.82;97.15;99586.27;105204;1255;62613;-70
2023/01/16 01:03:49;;;;;;;14.00;8.00;;;;;;;-1.84;97.03;99574.25;105317;1255;72688;-69
2023/01/16 01:06:15;;;;;;;15.20;9.20;;;;;;;-1.85;96.80;99571.03;105564;1260;71373;-69
2023/01/16 01:08:42;;;;;;;13.40;7.70;;;;;;;-1.77;96.10;99576.61;105575;1255;74662;-70
2023/01/16 01:11:11;;;;;;;15.40;8.60;;;;;;;-1.71;95.58;99567.05;105303;1256;61701;-72
2023/01/16 01:13:38;;;;;;;14.90;7.30;;;;;;;-1.73;95.76;99570.48;105470;1260;62439;-71
2023/01/16 01:16:05;;;;;;;12.30;8.00;;;;;;;-1.75;95.38;99567.98;105373;1256;72060;-71
2023/01/16 01:18:33;;;;;;;10.10;6.60;;;;;;;-1.67;94.68;99556.19;105481;1259;70135;-72
2023/01/16 01:20:59;;;;;;;14.60;8.30;;;;;;;-1.60;94.61;99543.27;105362;1256;74555;-71
2023/01/16 01:23:26;;;;;;;10.80;6.80;;;;;;;-1.62;94.80;99546.48;105244;1254;59707;-72
2023/01/16 01:25:53;;;;;;;11.30;6.90;;;;;;;-1.64;94.90;99538.82;105370;1255;62258;-72
2023/01/16 01:28:20;;;;;;;11.10;6.70;;;;;;;-1.66;94.75;99532.50;105373;1256;73985;-70
2023/01/16 01:30:47;;;;;;;10.40;6.30;;;;;;;-1.56;94.40;99538.33;105285;1261;71074;-71
2023/01/16 01:33:14;;;;;;;10.80;6.40;;;;;;;-1.52;94.03;99534.79;105314;1259;74899;-71
2023/01/16 01:35:40;;;;;;;10.70;6.70;;;;;;;-1.58;94.06;99532.55;105273;1256;59867;-68
2023/01/16 01:38:07;;;;;;;11.70;7.20;;;;;;;-1.63;94.46;99535.46;105291;1254;59906;-71
2023/01/16 01:40:34;;;;;;;10.10;6.00;;;;;;;-1.55;94.38;99541.41;105478;1259;75542;-69
2023/01/16 01:43:01;;;;;;;10.20;6.10;;;;;;;-1.49;94.26;99536.70;105557;1256;72508;-71
2023/01/16 01:45:29;;;;;;;9.80;6.70;;;;;;;-1.54;94.46;99531.42;105500;1260;74920;-71
2023/01/16 01:48:11;;;;;;;10.30;6.30;;;;;;;-1.57;94.68;99531.30;105320;1260;61907;-70
2023/01/16 01:50:43;;;;;;;11.60;6.10;;;;;;;-1.48;94.56;99530.86;105374;1254;62438;-72
2023/01/16 01:53:13;;;;;;;10.70;6.70;;;;;;;-1.44;94.36;99526.60;105515;1261;74209;-71
2023/01/16 01:55:41;;;;;;;10.80;6.30;;;;;;;-1.48;94.70;99519.05;105429;1256;71525;-72
2023/01/16 01:58:08;;;;;;;8.70;5.80;;;;;;;-1.51;94.98;99524.67;105424;1256;74639;-73
2023/01/16 02:00:35;;;;;;;13.70;6.70;;;;;;;-1.49;94.99;99509.77;105235;1256;63222;-70
2023/01/16 02:03:10;;;;;;;9.60;6.20;;;;;;;-1.39;94.74;99503.23;105668;1256;61921;-68
2023/01/16 02:05:44;;;;;;;9.60;6.00;;;;;;;-1.41;94.74;99506.43;105562;1260;75003;-69
2023/01/16 02:08:16;;;;;;;9.40;6.00;;;;;;;-1.45;95.07;99507.08;105637;1260;71274;-70
2023/01/16 02:10:47;;;;;;;8.90;5.30;;;;;;;-1.37;94.88;99510.02;105345;1260;74411;-69
2023/01/16 02:13:14;;;;;;;8.30;6.00;;;;;;;-1.33;94.90;99499.20;105249;1261;59648;-68
2023/01/16 02:19:15;;;;;;;11.20;6.80;;;;;;;-1.36;95.11;99494.52;105330;1261;60011;-71
2023/01/16 02:21:47;;;;;;;8.20;5.50;;;;;;;-1.31;95.08;99498.00;105354;1257;69983;-71
2023/01/16 02:24:39;;;;;;;9.00;5.90;;;;;;;-1.30;94.89;99495.02;105385;1256;74499;-71
2023/01/16 02:27:14;;;;;;;10.80;6.30;;;;;;;-1.36;95.08;99503.77;105482;1253;59879;-71
2023/01/16 02:29:47;;;;;;;8.80;5.70;;;;;;;-1.33;95.04;99495.03;105348;1261;60144;-70
2023/01/16 02:32:35;;;;;;;10.30;5.50;;;;;;;-1.27;95.10;99487.01;105356;1260;74068;-69
2023/01/16 02:35:14;;;;;;;9.80;5.90;;;;;;;-1.32;95.02;99493.95;105365;1256;72035;-70
2023/01/16 02:37:47;;;;;;;7.40;5.00;;;;;;;-1.39;95.15;99492.08;105242;1258;73665;-71
2023/01/16 02:41:01;;;;;;;8.90;5.60;;;;;;;-1.31;95.10;99481.14;105232;1259;61053;-70
2023/01/16 02:43:50;;;;;;;9.40;5.70;;;;;;;-1.27;95.00;99487.17;105078;1263;61853;-72
2023/01/16 02:46:25;;;;;;;10.10;6.10;;;;;;;-1.32;95.33;99488.51;105283;1260;75152;-71
2023/01/16 02:49:03;;;;;;;8.40;5.20;;;;;;;-1.29;95.31;99488.84;105487;1254;70102;-74
2023/01/16 02:51:37;;;;;;;11.20;6.60;;;;;;;-1.18;95.15;99483.11;105172;1256;74187;-71
2023/01/16 02:54:11;;;;;;;12.50;6.40;;;;;;;-1.21;95.27;99478.77;105314;1261;59622;-72
2023/01/16 02:56:42;;;;;;;8.90;5.90;;;;;;;-1.28;95.39;99490.70;105363;1261;61244;-72
2023/01/16 02:59:10;;;;;;;9.00;5.10;;;;;;;-1.23;95.30;99498.16;105450;1256;73402;-72
2023/01/16 03:01:40;;;;;;;9.50;6.30;;;;;;;-1.19;95.31;99494.81;105410;1261;71321;-73
2023/01/16 03:04:37;;;;;;;10.20;6.30;;;;;;;-1.24;95.42;99499.12;105293;1261;71692;-72
2023/01/16 03:07:30;;;;;;;9.70;5.90;;;;;;;-1.24;95.60;99490.42;105882;1257;62737;-71
2023/01/16 03:10:25;;;;;;;8.70;6.10;;;;;;;-1.13;95.12;99488.73;106242;1254;59729;-70
2023/01/16 03:13:07;;;;;;;11.10;5.90;;;;;;;-1.18;95.37;99491.45;105467;1259;75024;-71
2023/01/16 03:16:07;;;;;;;9.40;6.10;;;;;;;-1.20;95.32;99485.85;105336;1258;69661;-72
2023/01/16 03:18:34;;;;;;;9.50;5.70;;;;;;;-1.13;95.25;99477.77;105161;1256;73573;-75
2023/01/16 03:21:04;;;;;;;9.10;6.10;;;;;;;-1.19;95.47;99468.55;105403;1258;60593;-75
2023/01/16 03:23:37;;;;;;;9.10;6.10;;;;;;;-1.22;95.70;99465.95;105598;1256;61209;-72
2023/01/16 03:26:14;;;;;;;8.20;5.40;;;;;;;-1.13;95.49;99474.92;105446;1259;74214;-73
2023/01/16 03:28:58;;;;;;;9.00;6.00;;;;;;;-1.08;95.29;99472.39;105570;1256;72188;-74
2023/01/16 03:31:58;;;;;;;7.80;5.40;;;;;;;-1.14;95.48;99469.29;105576;1254;74864;-74
2023/01/16 03:34:48;;;;;;;9.80;5.60;;;;;;;-1.15;95.62;99467.27;105657;1256;63102;-71
2023/01/16 03:37:27;;;;;;;8.50;5.30;;;;;;;-1.04;95.36;99470.05;105666;1256;61374;-77
2023/01/16 03:39:57;;;;;;;11.30;6.60;;;;;;;-1.05;95.41;99459.65;105891;1259;73271;-74
2023/01/16 03:42:38;;;;;;;8.50;5.30;;;;;;;-1.10;95.30;99457.72;105337;1261;71529;-75
2023/01/16 03:45:16;;;;;;;8.70;5.80;;;;;;;-1.04;95.07;99450.91;105610;1261;73639;-74
2023/01/16 03:47:48;;;;;;;7.60;5.70;;;;;;;-0.98;94.87;99454.21;105204;1254;60191;-73
2023/01/16 03:50:15;;;;;;;8.20;5.20;;;;;;;-1.05;95.15;99451.81;105604;1264;61597;-73
2023/01/16 03:52:45;;;;;;;8.80;5.80;;;;;;;-1.05;95.37;99456.73;105591;1260;72803;-74
2023/01/16 03:55:14;;;;;;;8.40;5.20;;;;;;;-0.94;94.91;99463.50;105474;1261;71560;-74
2023/01/16 03:57:49;;;;;;;10.20;6.10;;;;;;;-0.93;95.13;99459.77;105884;1253;74794;-74
2023/01/16 04:00:17;;;;;;;10.20;5.60;;;;;;;-1.00;95.28;99460.02;105556;1253;61747;-71
2023/01/16 04:02:48;;;;;;;7.50;5.00;;;;;;;-1.02;95.26;99453.19;105521;1258;60245;-71
2023/01/16 04:05:18;;;;;;;8.40;5.90;;;;;;;-0.92;95.09;99441.27;105131;1253;75599;-72
2023/01/16 04:08:14;;;;;;;8.50;5.60;;;;;;;-0.91;95.06;99444.52;105456;1253;70873;-72
2023/01/16 04:10:42;;;;;;;9.00;5.80;;;;;;;-1.00;95.35;99447.31;105254;1256;74801;-71
2023/01/16 04:13:17;;;;;;;7.10;5.60;;;;;;;-0.96;95.38;99433.36;105689;1256;61014;-74
2023/01/16 04:15:46;;;;;;;10.00;6.00;;;;;;;-0.87;95.12;99432.05;105252;1256;60539;-73
2023/01/16 04:18:13;;;;;;;9.90;6.50;;;;;;;-0.91;95.39;99428.98;105611;1259;74996;-73
2023/01/16 04:20:41;;;;;;;8.50;5.50;;;;;;;-0.94;95.29;99433.39;105306;1253;72665;-73
2023/01/16 04:23:08;;;;;;;9.30;6.20;;;;;;;-0.85;95.23;99438.84;105302;1256;72612;-73
2023/01/16 04:25:35;;;;;;;9.70;6.40;;;;;;;-0.85;95.11;99448.39;105543;1254;61552;-70
2023/01/16 04:28:03;;;;;;;9.20;6.30;;;;;;;-0.91;95.30;99446.24;105231;1255;62651;-69
2023/01/16 04:30:29;;;;;;;8.40;5.50;;;;;;;-0.93;95.56;99441.17;105425;1260;76310;-72
2023/01/16 04:32:56;;;;;;;8.90;6.30;;;;;;;-0.84;95.23;99442.80;105352;1256;72081;-69
2023/01/16 04:35:23;;;;;;;9.70;5.40;;;;;;;-0.81;95.15;99452.17;105388;1254;74540;-69
2023/01/16 04:37:50;;;;;;;8.20;5.60;;;;;;;-0.86;95.36;99453.20;105366;1253;62067;-70
2023/01/16 04:40:17;;;;;;;8.50;5.20;;;;;;;-0.92;95.52;99440.52;105416;1253;62288;-70
2023/01/16 04:42:44;;;;;;;9.80;5.50;;;;;;;-0.88;95.27;99445.85;105345;1259;76087;-70
2023/01/16 04:45:11;;;;;;;7.00;4.90;;;;;;;-0.82;95.14;99454.98;105137;1256;72663;-70
2023/01/16 04:47:37;;;;;;;8.10;5.90;;;;;;;-0.84;94.88;99450.59;105380;1260;74348;-70
2023/01/16 04:50:05;;;;;;;7.80;5.30;;;;;;;-0.91;95.33;99451.62;105305;1253;60507;-72
2023/01/16 04:52:32;;;;;;;9.00;6.50;;;;;;;-0.87;95.34;99444.59;105275;1260;62715;-71
2023/01/16 04:54:59;;;;;;;9.20;6.60;;;;;;;-0.82;95.07;99452.02;105473;1258;73729;-71
2023/01/16 04:57:26;;;;;;;8.30;5.90;;;;;;;-0.85;95.03;99441.84;105388;1256;70709;-72
2023/01/16 04:59:53;;;;;;;6.10;4.30;;;;;;;-0.83;95.30;99444.14;105341;1258;72271;-73
2023/01/16 05:02:20;;;;;;;6.80;4.90;;;;;;;-0.80;95.11;99437.48;105329;1254;61702;-70
2023/01/16 05:04:47;;;;;;;7.80;5.50;;;;;;;-0.83;95.28;99439.92;105428;1260;62114;-73
2023/01/16 05:07:14;;;;;;;8.40;4.90;;;;;;;-0.85;94.93;99440.64;105377;1259;75409;-72
2023/01/16 05:09:41;;;;;;;6.60;4.80;;;;;;;-0.78;94.72;99425.01;105320;1259;72118;-74
2023/01/16 05:12:07;;;;;;;8.00;4.70;;;;;;;-0.75;94.81;99424.98;105464;1256;73103;-71
2023/01/16 05:14:34;;;;;;;6.90;4.90;;;;;;;-0.79;94.96;99418.51;105590;1256;60562;-73
2023/01/16 05:17:01;;;;;;;6.70;4.70;;;;;;;-0.84;95.14;99427.83;106430;1256;62220;-72
2023/01/16 05:19:28;;;;;;;6.90;5.00;;;;;;;-0.81;94.89;99424.86;105452;1261;76010;-72
2023/01/16 05:21:55;;;;;;;6.30;4.40;;;;;;;-0.72;94.77;99421.47;105392;1258;71497;-69
2023/01/16 05:24:22;;;;;;;6.60;5.00;;;;;;;-0.72;94.77;99416.06;105268;1261;74635;-71
2023/01/16 05:26:49;;;;;;;8.10;5.30;;;;;;;-0.78;94.89;99413.89;105530;1258;60559;-71
2023/01/16 05:29:16;;;;;;;6.20;4.40;;;;;;;-0.82;95.26;99409.23;105357;1258;62382;-72
2023/01/16 05:31:43;;;;;;;7.30;4.70;;;;;;;-0.74;94.97;99409.60;105499;1256;73753;-72
2023/01/16 05:34:10;;;;;;;9.10;5.50;;;;;;;-0.68;94.88;99408.17;105307;1254;71141;-71
2023/01/16 05:36:37;;;;;;;8.10;5.40;;;;;;;-0.72;94.75;99411.95;105237;1257;72551;-71
2023/01/16 05:39:04;;;;;;;8.40;5.70;;;;;;;-0.72;94.91;99410.72;105325;1259;60534;-72
2023/01/16 05:41:31;;;;;;;7.40;5.20;;;;;;;-0.65;94.93;99407.27;105268;1254;61124;-69
2023/01/16 05:43:57;;;;;;;9.50;6.40;;;;;;;-0.66;95.08;99406.46;105302;1254;72670;-72
2023/01/16 05:46:24;;;;;;;7.60;4.80;;;;;;;-0.71;95.31;99405.38;105143;1256;71356;-73
2023/01/16 05:48:52;;;;;;;8.80;5.00;;;;;;;-0.69;95.22;99404.91;105397;1256;74319;-73
2023/01/16 05:51:18;;;;;;;7.00;5.20;;;;;;;-0.61;95.02;99402.42;105322;1259;60407;-73
2023/01/16 05:53:50;;;;;;;7.90;5.00;;;;;;;-0.61;94.95;99394.80;105240;1256;60462;-70
2023/01/16 05:56:19;;;;;;;7.10;5.00;;;;;;;-0.66;95.32;99404.00;105411;1259;74834;-70
2023/01/16 05:58:46;;;;;;;7.60;5.70;;;;;;;-0.67;95.38;99400.95;105320;1261;71172;-72
2023/01/16 06:01:12;;;;;;;8.00;5.30;;;;;;;-0.60;95.05;99404.27;105468;1260;74819;-73
2023/01/16 06:03:39;;;;;;;8.30;5.80;;;;;;;-0.57;94.88;99408.45;105313;1256;61774;-74
2023/01/16 06:06:06;;;;;;;8.60;5.90;;;;;;;-0.65;95.27;99402.70;105324;1262;62587;-70
2023/01/16 06:08:33;;;;;;;7.50;4.80;;;;;;;-0.67;95.52;99409.47;105352;1259;74223;-70
2023/01/16 06:11:00;;;;;;;5.80;4.50;;;;;;;-0.59;95.16;99412.76;105346;1257;70416;-70
2023/01/16 06:13:27;;;;;;;8.10;5.70;;;;;;;-0.59;95.07;99413.48;105366;1260;73820;-69
2023/01/16 06:15:54;;;;;;;8.20;5.10;;;;;;;-0.65;95.38;99414.55;106125;1262;60407;-68
2023/01/16 06:18:21;;;;;;;6.90;5.00;;;;;;;-0.65;95.45;99425.33;106888;1259;60769;-71
2023/01/16 06:20:48;;;;;;;5.90;4.10;;;;;;;-0.55;95.25;99425.23;106884;1259;75925;-72
2023/01/16 06:23:15;;;;;;;7.60;5.30;;;;;;;-0.55;95.01;99423.27;106587;1259;71095;-71
2023/01/16 06:25:42;;;;;;;9.00;5.30;;;;;;;-0.56;94.91;99425.23;105348;1255;74610;-74
2023/01/16 06:28:09;;;;;;;7.40;5.00;;;;;;;-0.55;94.78;99424.53;105247;1261;61836;-73
2023/01/16 06:30:35;;;;;;;7.60;5.20;;;;;;;-0.47;94.48;99418.73;105309;1259;61146;-73
2023/01/16 06:33:02;;;;;;;8.90;5.70;;;;;;;-0.44;94.51;99413.64;105123;1260;73904;-74
2023/01/16 06:35:29;;;;;;;8.80;5.50;;;;;;;-0.47;94.81;99416.28;105381;1255;72467;-73
2023/01/16 06:37:56;;;;;;;8.60;5.30;;;;;;;-0.48;94.83;99410.30;105228;1260;74656;-73
2023/01/16 06:40:23;;;;;;;7.60;5.80;;;;;;;-0.39;94.60;99398.17;105249;1256;63578;-73
2023/01/16 06:42:50;;;;;;;17.60;9.20;;;;;;;-0.35;94.62;99400.66;105415;1254;60473;-74
2023/01/16 06:45:21;;;;;;;12.90;8.30;;;;;;;-0.37;94.78;99400.64;105323;1258;74136;-73
2023/01/16 06:47:52;;;;;;;13.90;7.90;;;;;;;-0.40;95.07;99402.55;105483;1261;72769;-74
2023/01/16 06:50:19;;;;;;;9.30;5.70;;;;;;;-0.30;94.94;99406.92;105372;1260;70428;-74
2023/01/16 06:52:47;;;;;;;9.10;6.50;;;;;;;-0.26;94.82;99406.50;105325;1260;60382;-73
2023/01/16 06:55:14;;;;;;;14.40;8.10;;;;;;;-0.30;94.98;99402.72;105490;1260;60946;-73
2023/01/16 06:57:44;;;;;;;10.70;7.50;;;;;;;-0.32;95.06;99396.30;105477;1256;74598;-81
2023/01/16 07:00:12;;;;;;;14.10;7.30;;;;;;;-0.24;94.85;99400.23;105405;1260;72209;-75
2023/01/16 07:02:40;;;;;;;15.90;9.10;;;;;;;-0.19;94.43;99399.02;105561;1258;72047;-75
2023/01/16 07:05:08;;;;;;;13.50;8.40;;;;;;;-0.24;94.66;99401.13;105607;1260;61209;-76
2023/01/16 07:07:35;;;;;;;15.20;8.30;;;;;;;-0.25;94.66;99402.23;105579;1257;60545;-75
2023/01/16 07:10:03;;;;;;;14.40;7.90;;;;;;;-0.15;94.53;99397.67;105362;1256;76303;-76
2023/01/16 07:12:29;;;;;;;15.80;8.80;;;;;;;-0.09;94.38;99396.06;105488;1255;72532;-77
2023/01/16 07:23:25;;;;;;;10.80;7.80;;;;;;;-0.07;94.37;99385.81;105823;1260;74859;-76
2023/01/16 07:25:53;;;;;;;10.80;7.70;;;;;;;-0.10;94.71;99383.61;105744;1258;72195;-78
2023/01/16 07:28:20;;;;;;;15.00;8.40;;;;;;;-0.09;94.70;99383.00;105827;1260;74856;-76
2023/01/16 07:30:47;;;;;;;15.60;8.80;;;;;;;0.02;94.34;99377.17;106136;1255;63198;-77
2023/01/16 07:33:13;;;;;;;24.20;12.70;;;;;;;0.11;94.31;99375.48;106351;1260;61784;-76
2023/01/16 07:35:40;;;;;;;20.30;11.70;;;;;;;0.13;94.27;99377.29;106005;1258;74466;-77
2023/01/16 07:38:07;;;;;;;19.10;9.90;;;;;;;0.13;94.17;99381.27;105659;1263;72586;-76
2023/01/16 07:40:34;;;;;;;16.70;9.60;;;;;;;0.17;93.67;99381.80;105652;1261;73449;-76
2023/01/16 07:43:01;;;;;;;18.70;11.20;;;;;;;0.26;93.44;99377.53;105614;1257;61092;-76
2023/01/16 07:45:28;;;;;;;15.80;9.20;;;;;;;0.25;93.51;99379.02;105675;1257;62655;-76
2023/01/16 07:47:55;;;;;;;18.80;10.90;;;;;;;0.23;93.72;99380.90;105652;1261;75561;-74
2023/01/16 07:50:21;;;;;;;19.60;10.50;;;;;;;0.22;93.85;99372.31;105732;1259;72039;-77
2023/01/16 07:52:50;;;;;;;14.60;9.40;;;;;;;0.27;93.69;99378.52;105668;1261;71949;-77
2023/01/16 07:55:17;;;;;;;18.20;10.00;;;;;;;0.38;93.06;99379.80;105630;1254;63317;-77
2023/01/16 07:57:44;;;;;;;19.90;11.70;;;;;;;0.43;93.11;99382.21;105637;1260;61337;-77
2023/01/16 08:00:12;;;;;;;18.80;9.80;;;;;;;0.40;92.98;99380.36;105755;1256;75923;-78
2023/01/16 08:02:39;;;;;;;14.50;9.00;;;;;;;0.37;92.89;99378.69;105559;1260;72650;-78
2023/01/16 08:05:06;;;;;;;13.40;8.50;;;;;;;0.35;92.76;99377.27;105660;1259;74983;-77
2023/01/16 08:07:33;;;;;;;13.20;7.60;;;;;;;0.44;92.50;99378.33;105683;1261;63593;-77
2023/01/16 08:10:00;;;;;;;12.00;8.00;;;;;;;0.52;92.15;99384.70;105654;1260;62484;-77
2023/01/16 08:12:27;;;;;;;13.10;8.30;;;;;;;0.50;92.02;99377.35;105703;1260;76043;-77
2023/01/16 08:14:54;;;;;;;14.10;8.40;;;;;;;0.43;92.08;99376.30;105620;1258;70639;-78
2023/01/16 08:17:20;;;;;;;10.80;7.60;;;;;;;0.40;92.16;99372.67;105648;1261;74984;-77
2023/01/16 08:19:48;;;;;;;12.00;8.00;;;;;;;0.53;92.14;99371.05;106085;1261;62209;-77
2023/01/16 08:22:14;;;;;;;11.80;7.90;;;;;;;0.59;91.94;99369.02;106404;1258;62450;-77
2023/01/16 08:24:41;;;;;;;13.30;8.50;;;;;;;0.57;92.12;99372.15;106054;1260;75903;-77
2023/01/16 08:27:08;;;;;;;15.80;8.50;;;;;;;0.55;92.26;99366.73;106060;1258;71125;-76
2023/01/16 08:29:35;;;;;;;14.20;8.80;;;;;;;0.62;92.12;99367.77;106157;1260;74731;-77
2023/01/16 08:32:02;;;;;;;19.90;10.30;;;;;;;0.69;91.81;99368.96;105692;1260;60562;-77
2023/01/16 08:34:30;;;;;;;19.00;11.40;;;;;;;0.68;91.87;99373.30;105671;1257;60376;-77
2023/01/16 08:36:56;;;;;;;19.50;12.40;;;;;;;0.65;91.90;99369.50;106086;1261;73904;-77
2023/01/16 08:39:25;;;;;;;20.20;12.70;;;;;;;0.68;91.80;99371.34;106586;1260;69514;-77
2023/01/16 08:52:58;;;;;;;12.70;8.90;;;;;;;0.82;91.71;99351.85;105597;1257;72818;-77
2023/01/16 08:55:25;;;;;;;13.30;9.90;;;;;;;0.82;91.65;99350.39;105667;1257;75068;-77
2023/01/16 08:57:52;;;;;;;13.40;9.50;;;;;;;0.76;91.98;99351.74;105586;1259;61572;-77
2023/01/16 09:00:19;;;;;;;14.90;9.40;;;;;;;0.74;92.05;99353.63;105593;1259;62199;-76
2023/01/16 09:02:46;;;;;;;18.20;10.00;;;;;;;0.82;92.00;99351.97;105564;1265;73180;-77
2023/01/16 09:05:13;;;;;;;17.10;10.70;;;;;;;0.90;91.89;99350.14;105631;1260;69499;-77
2023/01/16 09:07:40;;;;;;;18.30;11.30;;;;;;;0.91;92.24;99352.38;105672;1261;74969;-77
2023/01/16 09:10:08;;;;;;;18.30;11.50;;;;;;;0.89;92.30;99350.42;105229;1261;61746;-77
2023/01/16 09:15:20;;;;;;;15.10;11.50;;;;;;;0.98;92.22;99337.32;105665;1259;75961;-78
2023/01/16 09:17:47;;;;;;;15.70;11.60;;;;;;;1.02;91.93;99336.72;105592;1261;70792;-78
2023/01/16 09:20:14;;;;;;;18.20;11.40;;;;;;;0.97;91.89;99333.97;105731;1256;74182;-78
2023/01/16 09:22:41;;;;;;;15.90;10.50;;;;;;;0.89;91.87;99331.71;106144;1254;63041;-77
2023/01/16 09:25:09;;;;;;;16.70;11.30;;;;;;;0.93;91.85;99329.90;106269;1254;60418;-77
2023/01/16 09:27:36;;;;;;;20.30;10.90;;;;;;;0.99;91.64;99328.36;105895;1269;75841;-77
2023/01/16 09:30:04;;;;;;;18.50;12.20;;;;;;;0.99;91.87;99322.66;105850;1259;72211;-77
2023/01/16 09:32:30;;;;;;;20.30;14.10;;;;;;;0.96;91.96;99320.55;105570;1260;74679;-77
2023/01/16 09:34:57;;;;;;;18.00;11.20;;;;;;;0.95;92.00;99314.35;105610;1261;62049;-77
2023/01/16 09:37:25;;;;;;;20.40;12.20;;;;;;;1.05;91.57;99306.64;105601;1255;61618;-79
2023/01/16 09:39:54;;;;;;;21.30;12.20;;;;;;;1.12;91.31;99308.23;105662;1257;71910;-78
2023/01/16 09:45:21;;;;;;;23.80;13.70;;;;;;;1.06;91.51;99302.38;106687;1254;74392;-77
2023/01/16 09:47:54;;;;;;;26.10;13.50;;;;;;;1.09;91.32;99302.99;105693;1263;60547;-77
2023/01/16 09:50:54;;;;;;;26.50;15.20;;;;;;;1.22;91.07;99302.73;105564;1259;62443;-77
2023/01/16 09:59:27;;;;;;;20.00;13.20;;;;;;;1.23;90.75;99292.89;105811;1260;74160;-77
2023/01/16 10:01:59;;;;;;;22.30;15.20;;;;;;;1.32;90.52;99282.39;105816;1259;61669;-75
2023/01/16 10:04:27;;;;;;;21.90;13.90;;;;;;;1.28;90.55;99281.13;106770;1260;60423;-77
2023/01/16 10:07:07;;;;;;;22.20;12.70;;;;;;;1.23;90.73;99271.42;105759;1260;74703;-77
2023/01/16 10:09:44;;;;;;;21.80;13.40;;;;;;;1.20;90.79;99272.50;105565;1261;72751;-77
2023/01/16 10:12:11;;;;;;;17.80;12.00;;;;;;;1.28;91.02;99269.14;105664;1260;75002;-78
2023/01/16 10:14:51;;;;;;;21.90;13.70;;;;;;;1.26;91.02;99265.81;105803;1255;60520;-77
2023/01/16 10:17:20;;;;;;;20.50;12.40;;;;;;;1.20;91.15;99262.41;105704;1254;60508;-77
2023/01/16 10:20:15;;;;;;;22.60;13.40;;;;;;;1.19;91.21;99269.45;105727;1252;74572;-78
2023/01/16 10:23:07;;;;;;;21.40;13.00;;;;;;;1.28;91.04;99269.23;106007;1254;72085;-77
2023/01/16 10:25:46;;;;;;;23.60;14.80;;;;;;;1.24;91.24;99266.15;106242;1261;73877;-78
2023/01/16 10:28:32;;;;;;;23.90;14.40;;;;;;;1.17;91.59;99266.09;106117;1254;61723;-78
2023/01/16 10:31:13;;;;;;;22.50;14.60;;;;;;;1.18;91.68;99257.66;105560;1259;62696;-78
2023/01/16 10:34:14;;;;;;;26.10;14.30;;;;;;;1.27;91.55;99258.02;105766;1259;74696;-78
2023/01/16 10:36:43;;;;;;;26.70;15.30;;;;;;;1.24;91.86;99253.05;105748;1254;72303;-78
2023/01/16 10:39:11;;;;;;;27.00;16.10;;;;;;;1.18;92.04;99253.13;105588;1260;74882;-77
2023/01/16 10:50:16;;;;;;;27.20;16.10;;;;;;;1.13;92.99;99249.55;107819;1254;68895;-78
2023/01/16 10:53:02;;;;;;;25.10;15.90;;;;;;;1.10;93.34;99248.40;106115;1263;72058;-78
2023/01/16 10:55:29;;;;;;;21.50;13.90;;;;;;;1.18;93.24;99247.94;107371;1257;63602;-78
2023/01/16 10:57:58;;;;;;;23.30;13.90;;;;;;;1.18;93.19;99253.01;108110;1254;60346;-77
2023/01/16 11:00:30;;;;;;;21.90;14.30;;;;;;;1.13;93.62;99253.71;108308;1254;72569;-79
2023/01/16 11:02:58;;;;;;;20.10;14.70;;;;;;;1.09;93.98;99253.11;106089;1254;72193;-78
2023/01/16 11:05:30;;;;;;;21.40;14.00;;;;;;;1.15;93.76;99250.44;105785;1257;74857;-78
2023/01/16 11:08:10;;;;;;;23.80;15.60;;;;;;;1.20;93.80;99248.09;105645;1254;60638;-78
2023/01/16 11:10:38;;;;;;;20.30;13.90;;;;;;;1.16;94.26;99250.02;105817;1254;62310;-77
2023/01/16 11:19:18;;;;;;;20.40;14.10;;;;;;;1.20;94.39;99232.78;105862;1254;73469;-78
2023/01/16 11:21:55;;;;;;;26.30;17.20;;;;;;;1.15;94.51;99241.17;105583;1260;60567;-77
2023/01/16 11:24:33;;;;;;;26.20;18.00;;;;;;;1.10;94.95;99246.45;105792;1254;60664;-78
2023/01/16 11:27:01;;;;;;;24.40;16.60;;;;;;;1.15;94.72;99238.14;106240;1252;74843;-78
2023/01/16 11:29:31;;;;;;;24.10;16.30;;;;;;;1.20;94.58;99238.13;106459;1257;71415;-78
2023/01/16 11:32:03;;;;;;;27.90;16.90;;;;;;;1.16;94.91;99247.71;105644;1261;75320;-76
2023/01/16 11:34:30;;;;;;;28.30;17.50;;;;;;;1.08;95.21;99238.55;105585;1261;60565;-79
2023/01/16 11:36:58;;;;;;;23.70;15.30;;;;;;;1.05;95.43;99234.66;105874;1254;62053;-78
2023/01/16 11:39:27;;;;;;;23.10;16.20;;;;;;;1.12;95.27;99233.37;105983;1260;76102;-79
2023/01/16 11:41:55;;;;;;;26.00;15.50;;;;;;;1.16;95.36;99232.70;106508;1257;69212;-78
2023/01/16 11:47:18;;;;;;;23.90;14.90;;;;;;;1.14;96.05;99226.09;106683;1254;60939;-79
2023/01/16 11:49:46;;;;;;;21.90;14.50;;;;;;;1.22;95.56;99222.30;106569;1263;60357;-78
2023/01/16 11:52:29;;;;;;;28.10;16.10;;;;;;;1.27;95.34;99215.98;106838;1254;75844;-78
2023/01/16 11:54:58;;;;;;;30.90;19.20;;;;;;;1.24;95.92;99215.34;107251;1254;69841;-78
2023/01/16 11:57:40;;;;;;;31.30;20.40;;;;;;;1.22;96.11;99213.09;106421;1263;72637;-78
2023/01/16 12:00:08;;;;;;;31.00;18.90;;;;;;;1.26;95.89;99210.33;106251;1255;61144;-79
2023/01/16 12:02:44;;;;;;;34.50;21.40;;;;;;;1.32;95.60;99209.62;106294;1257;60536;-78
2023/01/16 12:08:24;;;;;;;36.70;21.40;;;;;;;1.22;96.12;99203.48;105674;1259;233347;-76
2023/01/16 12:16:47;;;;;;;30.70;19.60;;;;;;;1.43;96.53;99204.27;105028;1267;60665;-78
2023/01/16 12:19:17;;;;;;;32.00;18.80;;;;;;;1.37;96.44;99203.46;106240;1259;61308;-77
2023/01/16 12:21:49;;;;;;;28.60;17.60;;;;;;;1.33;96.35;99199.45;106340;1261;74565;-77
2023/01/16 12:24:55;;;;;;;30.40;19.90;;;;;;;1.41;96.10;99199.50;106302;1257;72857;-79
2023/01/16 12:27:28;;;;;;;28.70;19.00;;;;;;;1.46;96.06;99197.68;106089;1254;177543;-78
2023/01/16 12:30:01;;;;;;;32.80;19.90;;;;;;;1.41;96.09;99192.55;106198;1254;60538;-78
2023/01/16 12:32:49;;;;;;;30.10;18.90;;;;;;;1.39;96.44;99195.15;107103;1254;59547;-79
2023/01/16 12:35:16;;;;;;;25.90;16.80;;;;;;;1.52;96.19;99194.94;105792;1259;72169;-79